Terminal Aerodrome Forecast
Issued by NWS

Home | Current Version | Previous Version | Text Only | Print | Product List | Glossary On
Versions: 1 2 3 4 5 6 7 8 9 10 11 12 13 14 15 16
113
FTUS46 KMTR 221725
TAFSNS
TAF
KSNS 221725Z 2218/2318 28008KT P6SM FEW030
     FM222100 27012KT P6SM FEW025
     FM230300 27006KT P6SM SCT025
     FM230700 VRB04KT P6SM SCT020
     FM231600 14005KT P6SM FEW030=

USA.gov is the U.S. government's official web portal to all federal, state and local government web resources and services.